sensor_id;sensor_type;location;lat;lon;timestamp;pressure;altitude;pressure_sealevel;temperature;humidity
81816;BME280;71249;52.084;5.304;2024-02-21T00:01:43;102171.0;;;10.88;78.48
81816;BME280;71249;52.084;5.304;2024-02-21T00:03:19;102161.0;;;10.71;78.89
81816;BME280;71249;52.084;5.304;2024-02-21T00:04:57;102159.0;;;10.92;78.56
81816;BME280;71249;52.084;5.304;2024-02-21T00:08:09;102160.0;;;10.8;78.89
81816;BME280;71249;52.084;5.304;2024-02-21T00:09:45;102158.0;;;10.8;79.11
81816;BME280;71249;52.084;5.304;2024-02-21T00:11:21;102148.0;;;10.79;78.77
81816;BME280;71249;52.084;5.304;2024-02-21T00:16:09;102142.0;;;10.89;78.94
81816;BME280;71249;52.084;5.304;2024-02-21T00:17:45;102132.0;;;10.75;78.88
81816;BME280;71249;52.084;5.304;2024-02-21T00:19:21;102132.0;;;10.83;79.02
81816;BME280;71249;52.084;5.304;2024-02-21T00:22:33;102128.0;;;10.7;79.22
81816;BME280;71249;52.084;5.304;2024-02-21T00:24:09;102133.0;;;10.53;79.75
81816;BME280;71249;52.084;5.304;2024-02-21T00:25:46;102137.0;;;10.6;79.28
81816;BME280;71249;52.084;5.304;2024-02-21T00:28:58;102140.0;;;10.75;78.95
81816;BME280;71249;52.084;5.304;2024-02-21T00:30:34;102134.0;;;10.65;79.11
81816;BME280;71249;52.084;5.304;2024-02-21T00:32:10;102134.0;;;10.56;79.41
81816;BME280;71249;52.084;5.304;2024-02-21T00:35:22;102127.0;;;10.62;79.05
81816;BME280;71249;52.084;5.304;2024-02-21T00:36:58;102126.0;;;10.78;78.89
81816;BME280;71249;52.084;5.304;2024-02-21T00:38:34;102118.0;;;10.83;78.8
81816;BME280;71249;52.084;5.304;2024-02-21T00:40:11;102119.0;;;10.83;78.58
81816;BME280;71249;52.084;5.304;2024-02-21T00:43:24;102127.0;;;10.71;78.64
81816;BME280;71249;52.084;5.304;2024-02-21T00:45:00;102117.0;;;10.61;78.83
81816;BME280;71249;52.084;5.304;2024-02-21T00:46:36;102121.0;;;10.49;79.28
81816;BME280;71249;52.084;5.304;2024-02-21T00:49:48;102111.0;;;10.78;78.7
81816;BME280;71249;52.084;5.304;2024-02-21T00:51:24;102107.0;;;10.85;78.33
81816;BME280;71249;52.084;5.304;2024-02-21T00:53:00;102105.0;;;10.76;78.55
81816;BME280;71249;52.084;5.304;2024-02-21T00:56:12;102117.0;;;10.75;78.89
81816;BME280;71249;52.084;5.304;2024-02-21T00:57:48;102130.0;;;10.84;78.98
81816;BME280;71249;52.084;5.304;2024-02-21T00:59:25;102130.0;;;10.86;78.69
81816;BME280;71249;52.084;5.304;2024-02-21T01:01:02;102133.0;;;10.85;78.77
81816;BME280;71249;52.084;5.304;2024-02-21T01:04:14;102139.0;;;10.57;78.94
81816;BME280;71249;52.084;5.304;2024-02-21T01:05:50;102142.0;;;10.8;78.83
81816;BME280;71249;52.084;5.304;2024-02-21T01:07:26;102142.0;;;10.66;79.33
81816;BME280;71249;52.084;5.304;2024-02-21T01:10:38;102140.0;;;10.75;79.22
81816;BME280;71249;52.084;5.304;2024-02-21T01:12:15;102140.0;;;10.85;78.63
81816;BME280;71249;52.084;5.304;2024-02-21T01:13:51;102143.0;;;10.5;79.45
81816;BME280;71249;52.084;5.304;2024-02-21T01:17:04;102135.0;;;10.52;79.3
81816;BME280;71249;52.084;5.304;2024-02-21T01:18:40;102130.0;;;10.66;79.09
81816;BME280;71249;52.084;5.304;2024-02-21T01:20:15;102130.0;;;10.75;78.94
81816;BME280;71249;52.084;5.304;2024-02-21T01:23:28;102128.0;;;10.87;78.66
81816;BME280;71249;52.084;5.304;2024-02-21T01:25:05;102122.0;;;10.88;78.53
81816;BME280;71249;52.084;5.304;2024-02-21T01:26:41;102113.0;;;10.75;78.86
81816;BME280;71249;52.084;5.304;2024-02-21T01:28:18;102113.0;;;10.83;78.89
81816;BME280;71249;52.084;5.304;2024-02-21T01:31:30;102113.0;;;10.94;78.69
81816;BME280;71249;52.084;5.304;2024-02-21T01:33:06;102112.0;;;10.99;78.44
81816;BME280;71249;52.084;5.304;2024-02-21T01:34:42;102103.0;;;10.77;78.62
81816;BME280;71249;52.084;5.304;2024-02-21T01:37:55;102098.0;;;10.6;79.16
81816;BME280;71249;52.084;5.304;2024-02-21T01:39:31;102089.0;;;10.76;78.99
81816;BME280;71249;52.084;5.304;2024-02-21T01:41:07;102097.0;;;10.72;78.91
81816;BME280;71249;52.084;5.304;2024-02-21T01:44:19;102095.0;;;10.78;78.62
81816;BME280;71249;52.084;5.304;2024-02-21T01:45:56;102089.0;;;10.85;78.75
81816;BME280;71249;52.084;5.304;2024-02-21T01:47:34;102082.0;;;10.74;78.88
81816;BME280;71249;52.084;5.304;2024-02-21T01:49:11;102074.0;;;10.79;78.83
81816;BME280;71249;52.084;5.304;2024-02-21T01:52:25;102073.0;;;10.69;79.25
81816;BME280;71249;52.084;5.304;2024-02-21T01:54:02;102077.0;;;10.79;78.91
81816;BME280;71249;52.084;5.304;2024-02-21T01:55:38;102078.0;;;10.72;79.03
81816;BME280;71249;52.084;5.304;2024-02-21T01:58:50;102081.0;;;10.77;78.8
81816;BME280;71249;52.084;5.304;2024-02-21T02:00:27;102076.0;;;10.82;79.11
81816;BME280;71249;52.084;5.304;2024-02-21T02:02:05;102077.0;;;10.75;79.09
81816;BME280;71249;52.084;5.304;2024-02-21T02:05:19;102075.0;;;10.76;79.12
81816;BME280;71249;52.084;5.304;2024-02-21T02:06:57;102078.0;;;10.71;78.87
81816;BME280;71249;52.084;5.304;2024-02-21T02:08:35;102066.0;;;10.87;78.77
81816;BME280;71249;52.084;5.304;2024-02-21T02:10:13;102077.0;;;10.72;78.97
81816;BME280;71249;52.084;5.304;2024-02-21T02:13:25;102068.0;;;10.89;78.69
81816;BME280;71249;52.084;5.304;2024-02-21T02:15:02;102060.0;;;10.81;79.05
81816;BME280;71249;52.084;5.304;2024-02-21T02:16:39;102057.0;;;10.82;78.63
81816;BME280;71249;52.084;5.304;2024-02-21T02:19:56;102057.0;;;10.65;78.94
81816;BME280;71249;52.084;5.304;2024-02-21T02:21:35;102056.0;;;10.72;78.87
81816;BME280;71249;52.084;5.304;2024-02-21T02:23:21;102047.0;;;10.6;79.02
81816;BME280;71249;52.084;5.304;2024-02-21T02:24:58;102039.0;;;10.82;78.81
81816;BME280;71249;52.084;5.304;2024-02-21T02:28:10;102033.0;;;10.79;78.89
81816;BME280;71249;52.084;5.304;2024-02-21T02:29:46;102032.0;;;10.76;78.5
81816;BME280;71249;52.084;5.304;2024-02-21T02:31:22;102032.0;;;10.72;79.11
81816;BME280;71249;52.084;5.304;2024-02-21T02:34:35;102034.0;;;10.76;78.74
81816;BME280;71249;52.084;5.304;2024-02-21T02:36:12;102036.0;;;10.52;79.67
81816;BME280;71249;52.084;5.304;2024-02-21T02:37:48;102035.0;;;10.66;79.44
81816;BME280;71249;52.084;5.304;2024-02-21T02:39:25;102032.0;;;10.68;79.19
81816;BME280;71249;52.084;5.304;2024-02-21T02:42:37;102036.0;;;10.76;78.86
81816;BME280;71249;52.084;5.304;2024-02-21T02:44:13;102028.0;;;10.67;79.06
81816;BME280;71249;52.084;5.304;2024-02-21T02:45:49;102030.0;;;10.72;79.47
81816;BME280;71249;52.084;5.304;2024-02-21T02:49:01;102025.0;;;10.69;79.44
81816;BME280;71249;52.084;5.304;2024-02-21T02:50:38;102031.0;;;10.76;79.28
81816;BME280;71249;52.084;5.304;2024-02-21T02:52:14;102024.0;;;10.78;78.95
81816;BME280;71249;52.084;5.304;2024-02-21T02:55:26;102021.0;;;10.78;79.12
81816;BME280;71249;52.084;5.304;2024-02-21T02:57:02;102016.0;;;10.76;79.03
81816;BME280;71249;52.084;5.304;2024-02-21T02:58:38;102017.0;;;10.64;78.91
81816;BME280;71249;52.084;5.304;2024-02-21T03:00:15;102005.0;;;10.75;78.45
81816;BME280;71249;52.084;5.304;2024-02-21T03:03:27;102000.0;;;10.83;78.62
81816;BME280;71249;52.084;5.304;2024-02-21T03:05:12;101999.0;;;10.6;78.94
81816;BME280;71249;52.084;5.304;2024-02-21T03:06:49;102003.0;;;10.69;79.31
81816;BME280;71249;52.084;5.304;2024-02-21T03:10:02;102001.0;;;10.67;78.94
81816;BME280;71249;52.084;5.304;2024-02-21T03:11:39;102003.0;;;10.64;79.44
81816;BME280;71249;52.084;5.304;2024-02-21T03:13:15;102002.0;;;10.54;79.33
81816;BME280;71249;52.084;5.304;2024-02-21T03:16:27;101994.0;;;10.6;79.36
81816;BME280;71249;52.084;5.304;2024-02-21T03:18:04;101999.0;;;10.6;79.08
81816;BME280;71249;52.084;5.304;2024-02-21T03:19:40;101997.0;;;10.64;78.97
81816;BME280;71249;52.084;5.304;2024-02-21T03:21:16;101992.0;;;10.66;79.05
81816;BME280;71249;52.084;5.304;2024-02-21T03:24:31;101981.0;;;10.69;78.87
81816;BME280;71249;52.084;5.304;2024-02-21T03:26:07;101981.0;;;10.49;79.59
81816;BME280;71249;52.084;5.304;2024-02-21T03:27:43;101986.0;;;10.43;79.3
81816;BME280;71249;52.084;5.304;2024-02-21T03:30:56;101981.0;;;10.6;79.52
81816;BME280;71249;52.084;5.304;2024-02-21T03:32:32;101970.0;;;10.43;79.44
81816;BME280;71249;52.084;5.304;2024-02-21T03:34:09;101964.0;;;10.67;79.12
81816;BME280;71249;52.084;5.304;2024-02-21T03:37:22;101962.0;;;10.67;79.33
81816;BME280;71249;52.084;5.304;2024-02-21T03:38:58;101958.0;;;10.7;79.03
81816;BME280;71249;52.084;5.304;2024-02-21T03:40:35;101951.0;;;10.65;79.14
81816;BME280;71249;52.084;5.304;2024-02-21T03:42:11;101953.0;;;10.6;79.25
81816;BME280;71249;52.084;5.304;2024-02-21T03:45:24;101952.0;;;10.62;79.08
81816;BME280;71249;52.084;5.304;2024-02-21T03:47:00;101948.0;;;10.57;79.28
81816;BME280;71249;52.084;5.304;2024-02-21T03:48:36;101944.0;;;10.57;79.58
81816;BME280;71249;52.084;5.304;2024-02-21T03:51:49;101944.0;;;10.53;79.83
81816;BME280;71249;52.084;5.304;2024-02-21T03:53:25;101952.0;;;10.54;79.61
81816;BME280;71249;52.084;5.304;2024-02-21T03:55:01;101949.0;;;10.64;79.48
81816;BME280;71249;52.084;5.304;2024-02-21T03:58:15;101944.0;;;10.62;79.41
81816;BME280;71249;52.084;5.304;2024-02-21T03:59:51;101947.0;;;10.55;79.84
81816;BME280;71249;52.084;5.304;2024-02-21T04:01:27;101946.0;;;10.59;79.64
81816;BME280;71249;52.084;5.304;2024-02-21T04:03:04;101946.0;;;10.6;79.27
81816;BME280;71249;52.084;5.304;2024-02-21T04:06:19;101947.0;;;10.54;79.56
81816;BME280;71249;52.084;5.304;2024-02-21T04:07:55;101950.0;;;10.6;79.14
81816;BME280;71249;52.084;5.304;2024-02-21T04:09:31;101947.0;;;10.61;78.88
81816;BME280;71249;52.084;5.304;2024-02-21T04:12:43;101951.0;;;10.5;79.05
81816;BME280;71249;52.084;5.304;2024-02-21T04:14:19;101942.0;;;10.6;79.16
81816;BME280;71249;52.084;5.304;2024-02-21T04:15:55;101941.0;;;10.59;78.99
81816;BME280;71249;52.084;5.304;2024-02-21T04:19:07;101926.0;;;10.6;78.98
81816;BME280;71249;52.084;5.304;2024-02-21T04:20:44;101918.0;;;10.57;79.27
81816;BME280;71249;52.084;5.304;2024-02-21T04:22:20;101919.0;;;10.52;79.2
81816;BME280;71249;52.084;5.304;2024-02-21T04:23:56;101919.0;;;10.53;78.86
81816;BME280;71249;52.084;5.304;2024-02-21T04:27:08;101918.0;;;10.57;79.14
81816;BME280;71249;52.084;5.304;2024-02-21T04:28:44;101921.0;;;10.66;78.77
81816;BME280;71249;52.084;5.304;2024-02-21T04:30:21;101922.0;;;10.62;78.86
81816;BME280;71249;52.084;5.304;2024-02-21T04:33:33;101923.0;;;10.47;79.16
81816;BME280;71249;52.084;5.304;2024-02-21T04:35:09;101918.0;;;10.61;78.8
81816;BME280;71249;52.084;5.304;2024-02-21T04:36:45;101923.0;;;10.69;78.52
81816;BME280;71249;52.084;5.304;2024-02-21T04:39:58;101920.0;;;10.58;79.02
81816;BME280;71249;52.084;5.304;2024-02-21T04:41:34;101917.0;;;10.53;79.05
81816;BME280;71249;52.084;5.304;2024-02-21T04:43:10;101907.0;;;10.52;79.02
81816;BME280;71249;52.084;5.304;2024-02-21T04:46:22;101908.0;;;10.49;79.22
81816;BME280;71249;52.084;5.304;2024-02-21T04:47:58;101902.0;;;10.51;79.13
81816;BME280;71249;52.084;5.304;2024-02-21T04:49:34;101896.0;;;10.44;78.73
81816;BME280;71249;52.084;5.304;2024-02-21T04:51:11;101900.0;;;10.48;78.91
81816;BME280;71249;52.084;5.304;2024-02-21T04:54:24;101897.0;;;10.3;78.86
81816;BME280;71249;52.084;5.304;2024-02-21T04:56:03;101895.0;;;10.56;78.8
81816;BME280;71249;52.084;5.304;2024-02-21T04:57:40;101892.0;;;10.59;78.5
81816;BME280;71249;52.084;5.304;2024-02-21T05:00:53;101892.0;;;10.51;78.94
81816;BME280;71249;52.084;5.304;2024-02-21T05:02:29;101888.0;;;10.51;78.74
81816;BME280;71249;52.084;5.304;2024-02-21T05:04:05;101886.0;;;10.52;79.11
81816;BME280;71249;52.084;5.304;2024-02-21T05:07:17;101881.0;;;10.56;78.88
81816;BME280;71249;52.084;5.304;2024-02-21T05:08:53;101882.0;;;10.52;79.09
81816;BME280;71249;52.084;5.304;2024-02-21T05:10:29;101880.0;;;10.56;78.98
81816;BME280;71249;52.084;5.304;2024-02-21T05:12:06;101886.0;;;10.55;79.38
81816;BME280;71249;52.084;5.304;2024-02-21T05:15:19;101889.0;;;10.52;79.66
81816;BME280;71249;52.084;5.304;2024-02-21T05:16:55;101880.0;;;10.51;79.75
81816;BME280;71249;52.084;5.304;2024-02-21T05:18:31;101880.0;;;10.47;79.69
81816;BME280;71249;52.084;5.304;2024-02-21T05:21:44;101871.0;;;10.52;79.55
81816;BME280;71249;52.084;5.304;2024-02-21T05:23:20;101871.0;;;10.42;79.28
81816;BME280;71249;52.084;5.304;2024-02-21T05:24:56;101864.0;;;10.45;79.55
81816;BME280;71249;52.084;5.304;2024-02-21T05:28:08;101863.0;;;10.54;79.33
81816;BME280;71249;52.084;5.304;2024-02-21T05:29:47;101858.0;;;10.54;79.33
81816;BME280;71249;52.084;5.304;2024-02-21T05:31:23;101856.0;;;10.34;79.45
81816;BME280;71249;52.084;5.304;2024-02-21T05:33:04;101850.0;;;10.54;78.98
81816;BME280;71249;52.084;5.304;2024-02-21T05:36:16;101845.0;;;10.54;78.91
81816;BME280;71249;52.084;5.304;2024-02-21T05:37:52;101846.0;;;10.56;78.88
81816;BME280;71249;52.084;5.304;2024-02-21T05:39:28;101840.0;;;10.53;78.91
81816;BME280;71249;52.084;5.304;2024-02-21T05:42:41;101840.0;;;10.49;79.05
81816;BME280;71249;52.084;5.304;2024-02-21T05:44:18;101832.0;;;10.44;79.33
81816;BME280;71249;52.084;5.304;2024-02-21T05:45:55;101827.0;;;10.31;79.59
81816;BME280;71249;52.084;5.304;2024-02-21T05:49:07;101822.0;;;10.34;79.58
81816;BME280;71249;52.084;5.304;2024-02-21T05:50:43;101819.0;;;10.47;78.84
81816;BME280;71249;52.084;5.304;2024-02-21T05:52:19;101813.0;;;10.37;79.13
81816;BME280;71249;52.084;5.304;2024-02-21T05:53:55;101809.0;;;10.45;79.08
81816;BME280;71249;52.084;5.304;2024-02-21T05:57:07;101811.0;;;10.43;79.33
81816;BME280;71249;52.084;5.304;2024-02-21T05:58:44;101806.0;;;10.47;79.23
81816;BME280;71249;52.084;5.304;2024-02-21T06:00:20;101810.0;;;10.45;79.58
81816;BME280;71249;52.084;5.304;2024-02-21T06:03:33;101803.0;;;10.44;79.81
81816;BME280;71249;52.084;5.304;2024-02-21T06:05:10;101805.0;;;10.41;79.64
81816;BME280;71249;52.084;5.304;2024-02-21T06:06:46;101803.0;;;10.36;79.95
81816;BME280;71249;52.084;5.304;2024-02-21T06:09:58;101803.0;;;10.41;80.02
81816;BME280;71249;52.084;5.304;2024-02-21T06:11:34;101805.0;;;10.47;79.48
81816;BME280;71249;52.084;5.304;2024-02-21T06:13:10;101794.0;;;10.47;79.42
81816;BME280;71249;52.084;5.304;2024-02-21T06:16:22;101792.0;;;10.49;79.31
81816;BME280;71249;52.084;5.304;2024-02-21T06:17:58;101794.0;;;10.44;79.67
81816;BME280;71249;52.084;5.304;2024-02-21T06:19:35;101791.0;;;10.48;79.05
81816;BME280;71249;52.084;5.304;2024-02-21T06:21:12;101795.0;;;10.48;79.0
81816;BME280;71249;52.084;5.304;2024-02-21T06:24:24;101794.0;;;10.4;79.49
81816;BME280;71249;52.084;5.304;2024-02-21T06:26:00;101797.0;;;10.49;79.45
81816;BME280;71249;52.084;5.304;2024-02-21T06:27:36;101801.0;;;10.43;79.56
81816;BME280;71249;52.084;5.304;2024-02-21T06:30:48;101797.0;;;10.33;79.73
81816;BME280;71249;52.084;5.304;2024-02-21T06:32:24;101799.0;;;10.3;79.77
81816;BME280;71249;52.084;5.304;2024-02-21T06:34:00;101802.0;;;10.36;79.74
81816;BME280;71249;52.084;5.304;2024-02-21T06:37:16;101803.0;;;10.36;79.86
81816;BME280;71249;52.084;5.304;2024-02-21T06:38:52;101808.0;;;10.37;79.27
81816;BME280;71249;52.084;5.304;2024-02-21T06:40:28;101808.0;;;10.37;79.27
81816;BME280;71249;52.084;5.304;2024-02-21T06:42:04;101802.0;;;10.31;79.16
81816;BME280;71249;52.084;5.304;2024-02-21T06:45:16;101797.0;;;10.35;79.33
81816;BME280;71249;52.084;5.304;2024-02-21T06:46:53;101798.0;;;10.36;79.24
81816;BME280;71249;52.084;5.304;2024-02-21T06:48:29;101799.0;;;10.39;79.3
81816;BME280;71249;52.084;5.304;2024-02-21T06:51:43;101795.0;;;10.38;79.19
81816;BME280;71249;52.084;5.304;2024-02-21T06:53:18;101795.0;;;10.43;79.05
81816;BME280;71249;52.084;5.304;2024-02-21T06:54:55;101792.0;;;10.3;79.36
81816;BME280;71249;52.084;5.304;2024-02-21T06:58:07;101789.0;;;10.33;79.22
81816;BME280;71249;52.084;5.304;2024-02-21T06:59:43;101786.0;;;10.29;79.09
81816;BME280;71249;52.084;5.304;2024-02-21T07:01:19;101781.0;;;10.22;79.14
81816;BME280;71249;52.084;5.304;2024-02-21T07:02:55;101785.0;;;10.21;79.22
81816;BME280;71249;52.084;5.304;2024-02-21T07:06:07;101775.0;;;10.17;79.66
81816;BME280;71249;52.084;5.304;2024-02-21T07:07:43;101775.0;;;10.19;79.47
81816;BME280;71249;52.084;5.304;2024-02-21T07:09:19;101776.0;;;10.32;79.12
81816;BME280;71249;52.084;5.304;2024-02-21T07:12:32;101778.0;;;10.29;79.3
81816;BME280;71249;52.084;5.304;2024-02-21T07:14:08;101772.0;;;10.15;79.55
81816;BME280;71249;52.084;5.304;2024-02-21T07:15:44;101776.0;;;10.05;80.19
81816;BME280;71249;52.084;5.304;2024-02-21T07:18:56;101773.0;;;10.25;79.61
81816;BME280;71249;52.084;5.304;2024-02-21T07:20:32;101770.0;;;10.27;79.28
81816;BME280;71249;52.084;5.304;2024-02-21T07:22:08;101766.0;;;10.18;79.61
81816;BME280;71249;52.084;5.304;2024-02-21T07:25:20;101762.0;;;10.27;79.41
81816;BME280;71249;52.084;5.304;2024-02-21T07:26:56;101765.0;;;10.23;79.69
81816;BME280;71249;52.084;5.304;2024-02-21T07:28:33;101761.0;;;10.14;79.98
81816;BME280;71249;52.084;5.304;2024-02-21T07:30:09;101755.0;;;10.23;79.99
81816;BME280;71249;52.084;5.304;2024-02-21T07:33:22;101757.0;;;10.19;79.67
81816;BME280;71249;52.084;5.304;2024-02-21T07:34:58;101755.0;;;10.31;79.3
81816;BME280;71249;52.084;5.304;2024-02-21T07:36:35;101746.0;;;10.28;79.55
81816;BME280;71249;52.084;5.304;2024-02-21T07:39:47;101740.0;;;10.26;79.53
81816;BME280;71249;52.084;5.304;2024-02-21T07:41:24;101739.0;;;10.27;79.12
81816;BME280;71249;52.084;5.304;2024-02-21T07:43:01;101726.0;;;10.37;78.99
81816;BME280;71249;52.084;5.304;2024-02-21T07:46:13;101728.0;;;10.34;79.06
81816;BME280;71249;52.084;5.304;2024-02-21T07:47:49;101720.0;;;10.15;79.39
81816;BME280;71249;52.084;5.304;2024-02-21T07:49:25;101714.0;;;10.14;79.58
81816;BME280;71249;52.084;5.304;2024-02-21T07:51:01;101715.0;;;10.1;79.67
81816;BME280;71249;52.084;5.304;2024-02-21T07:54:14;101711.0;;;10.25;79.14
81816;BME280;71249;52.084;5.304;2024-02-21T07:55:50;101705.0;;;10.29;79.27
81816;BME280;71249;52.084;5.304;2024-02-21T07:57:26;101705.0;;;10.3;78.67
81816;BME280;71249;52.084;5.304;2024-02-21T08:00:39;101701.0;;;10.26;79.16
81816;BME280;71249;52.084;5.304;2024-02-21T08:02:15;101700.0;;;10.06;79.02
81816;BME280;71249;52.084;5.304;2024-02-21T08:03:52;101705.0;;;10.31;78.72
81816;BME280;71249;52.084;5.304;2024-02-21T08:07:04;101710.0;;;10.23;78.83
81816;BME280;71249;52.084;5.304;2024-02-21T08:08:40;101705.0;;;10.13;78.89
81816;BME280;71249;52.084;5.304;2024-02-21T08:10:17;101705.0;;;10.26;79.17
81816;BME280;71249;52.084;5.304;2024-02-21T08:13:31;101695.0;;;10.36;79.08
81816;BME280;71249;52.084;5.304;2024-02-21T08:15:08;101694.0;;;10.1;79.34
81816;BME280;71249;52.084;5.304;2024-02-21T08:16:45;101683.0;;;10.37;79.13
81816;BME280;71249;52.084;5.304;2024-02-21T08:18:24;101683.0;;;10.1;79.0
81816;BME280;71249;52.084;5.304;2024-02-21T08:21:36;101686.0;;;10.3;78.69
81816;BME280;71249;52.084;5.304;2024-02-21T08:23:12;101684.0;;;10.36;78.66
81816;BME280;71249;52.084;5.304;2024-02-21T08:24:48;101681.0;;;10.26;78.91
81816;BME280;71249;52.084;5.304;2024-02-21T08:28:00;101680.0;;;10.43;78.12
81816;BME280;71249;52.084;5.304;2024-02-21T08:29:36;101684.0;;;10.52;78.28
81816;BME280;71249;52.084;5.304;2024-02-21T08:31:18;101682.0;;;10.39;78.25
81816;BME280;71249;52.084;5.304;2024-02-21T08:32:54;101671.0;;;10.53;77.52
81816;BME280;71249;52.084;5.304;2024-02-21T08:36:06;101667.0;;;10.28;78.09
81816;BME280;71249;52.084;5.304;2024-02-21T08:37:43;101671.0;;;10.18;78.74
81816;BME280;71249;52.084;5.304;2024-02-21T08:39:19;101666.0;;;10.36;78.11
81816;BME280;71249;52.084;5.304;2024-02-21T08:42:31;101666.0;;;10.35;78.02
81816;BME280;71249;52.084;5.304;2024-02-21T08:44:10;101666.0;;;10.41;77.74
81816;BME280;71249;52.084;5.304;2024-02-21T08:45:46;101656.0;;;10.52;77.86
81816;BME280;71249;52.084;5.304;2024-02-21T08:48:59;101645.0;;;10.42;77.66
81816;BME280;71249;52.084;5.304;2024-02-21T08:50:35;101636.0;;;10.49;78.16
81816;BME280;71249;52.084;5.304;2024-02-21T08:52:11;101641.0;;;10.65;77.11
81816;BME280;71249;52.084;5.304;2024-02-21T08:53:48;101636.0;;;10.74;77.52
81816;BME280;71249;52.084;5.304;2024-02-21T08:57:01;101637.0;;;10.71;77.74
81816;BME280;71249;52.084;5.304;2024-02-21T08:58:38;101635.0;;;10.69;77.52
81816;BME280;71249;52.084;5.304;2024-02-21T09:00:16;101636.0;;;10.63;77.44
81816;BME280;71249;52.084;5.304;2024-02-21T09:03:28;101633.0;;;10.71;77.34
81816;BME280;71249;52.084;5.304;2024-02-21T09:05:05;101636.0;;;10.54;76.8
81816;BME280;71249;52.084;5.304;2024-02-21T09:06:45;101633.0;;;10.7;76.78
81816;BME280;71249;52.084;5.304;2024-02-21T09:09:57;101627.0;;;10.56;76.77
81816;BME280;71249;52.084;5.304;2024-02-21T09:11:33;101628.0;;;10.59;76.83
81816;BME280;71249;52.084;5.304;2024-02-21T09:13:10;101617.0;;;10.77;76.78
81816;BME280;71249;52.084;5.304;2024-02-21T09:14:46;101617.0;;;10.64;76.88
81816;BME280;71249;52.084;5.304;2024-02-21T09:17:58;101619.0;;;10.76;76.88
81816;BME280;71249;52.084;5.304;2024-02-21T09:19:35;101618.0;;;10.84;76.58
81816;BME280;71249;52.084;5.304;2024-02-21T09:21:12;101615.0;;;10.83;76.33
81816;BME280;71249;52.084;5.304;2024-02-21T09:24:24;101606.0;;;10.74;76.37
81816;BME280;71249;52.084;5.304;2024-02-21T09:26:01;101611.0;;;10.62;75.77
81816;BME280;71249;52.084;5.304;2024-02-21T09:27:37;101599.0;;;10.71;76.83
81816;BME280;71249;52.084;5.304;2024-02-21T09:30:51;101599.0;;;10.86;76.11
81816;BME280;71249;52.084;5.304;2024-02-21T09:32:27;101605.0;;;10.86;76.44
81816;BME280;71249;52.084;5.304;2024-02-21T09:34:03;101588.0;;;10.9;75.72
81816;BME280;71249;52.084;5.304;2024-02-21T09:35:39;101585.0;;;10.85;75.47
81816;BME280;71249;52.084;5.304;2024-02-21T09:38:51;101572.0;;;10.87;75.94
81816;BME280;71249;52.084;5.304;2024-02-21T09:40:32;101572.0;;;10.71;76.0
81816;BME280;71249;52.084;5.304;2024-02-21T09:42:11;101564.0;;;10.74;75.42
81816;BME280;71249;52.084;5.304;2024-02-21T09:45:26;101568.0;;;10.75;75.16
81816;BME280;71249;52.084;5.304;2024-02-21T09:47:03;101559.0;;;10.94;74.99
81816;BME280;71249;52.084;5.304;2024-02-21T09:48:55;101555.0;;;10.96;74.8
81816;BME280;71249;52.084;5.304;2024-02-21T09:50:36;101555.0;;;11.01;74.94
81816;BME280;71249;52.084;5.304;2024-02-21T09:53:53;101546.0;;;10.93;74.44
81816;BME280;71249;52.084;5.304;2024-02-21T09:55:31;101537.0;;;11.06;73.89
81816;BME280;71249;52.084;5.304;2024-02-21T09:57:09;101519.0;;;11.0;73.89
81816;BME280;71249;52.084;5.304;2024-02-21T09:58:46;101512.0;;;11.1;74.42
81816;BME280;71249;52.084;5.304;2024-02-21T10:02:02;101510.0;;;11.24;74.16
81816;BME280;71249;52.084;5.304;2024-02-21T10:03:38;101505.0;;;11.19;73.78
81816;BME280;71249;52.084;5.304;2024-02-21T10:05:14;101498.0;;;11.16;73.69
81816;BME280;71249;52.084;5.304;2024-02-21T10:08:27;101497.0;;;11.24;73.48
81816;BME280;71249;52.084;5.304;2024-02-21T10:10:04;101492.0;;;11.32;73.63
81816;BME280;71249;52.084;5.304;2024-02-21T10:11:40;101484.0;;;11.32;73.61
81816;BME280;71249;52.084;5.304;2024-02-21T10:13:24;101485.0;;;11.27;72.91
81816;BME280;71249;52.084;5.304;2024-02-21T10:16:38;101472.0;;;11.17;73.41
81816;BME280;71249;52.084;5.304;2024-02-21T10:18:17;101475.0;;;11.3;72.81
81816;BME280;71249;52.084;5.304;2024-02-21T10:19:54;101470.0;;;11.39;73.02
81816;BME280;71249;52.084;5.304;2024-02-21T10:23:06;101471.0;;;11.21;73.49
81816;BME280;71249;52.084;5.304;2024-02-21T10:24:45;101468.0;;;11.08;73.22
81816;BME280;71249;52.084;5.304;2024-02-21T10:26:22;101464.0;;;11.32;73.59
81816;BME280;71249;52.084;5.304;2024-02-21T10:27:58;101456.0;;;11.41;72.49
81816;BME280;71249;52.084;5.304;2024-02-21T10:31:20;101442.0;;;11.44;72.25
81816;BME280;71249;52.084;5.304;2024-02-21T10:32:57;101437.0;;;11.61;72.61
81816;BME280;71249;52.084;5.304;2024-02-21T10:34:34;101436.0;;;11.5;73.37
81816;BME280;71249;52.084;5.304;2024-02-21T10:37:48;101438.0;;;11.66;72.22
81816;BME280;71249;52.084;5.304;2024-02-21T10:39:24;101428.0;;;11.63;71.83
81816;BME280;71249;52.084;5.304;2024-02-21T10:41:00;101422.0;;;11.63;72.62
81816;BME280;71249;52.084;5.304;2024-02-21T10:42:37;101422.0;;;11.63;72.0
81816;BME280;71249;52.084;5.304;2024-02-21T10:45:54;101402.0;;;11.66;72.03
81816;BME280;71249;52.084;5.304;2024-02-21T10:47:36;101402.0;;;11.54;72.52
81816;BME280;71249;52.084;5.304;2024-02-21T10:49:19;101396.0;;;11.73;72.91
81816;BME280;71249;52.084;5.304;2024-02-21T10:51:03;101392.0;;;11.49;72.25
81816;BME280;71249;52.084;5.304;2024-02-21T10:54:44;101368.0;;;11.68;72.63
81816;BME280;71249;52.084;5.304;2024-02-21T10:56:26;101366.0;;;11.52;72.89
81816;BME280;71249;52.084;5.304;2024-02-21T10:58:08;101332.0;;;11.51;71.97
81816;BME280;71249;52.084;5.304;2024-02-21T10:59:48;101340.0;;;11.52;73.2
81816;BME280;71249;52.084;5.304;2024-02-21T11:01:24;101336.0;;;11.67;73.3
81816;BME280;71249;52.084;5.304;2024-02-21T11:04:40;101339.0;;;11.65;72.84
81816;BME280;71249;52.084;5.304;2024-02-21T11:06:19;101340.0;;;11.74;72.58
81816;BME280;71249;52.084;5.304;2024-02-21T11:07:56;101372.0;;;11.75;72.11